Time;durP1;ratioP1;P1;durP2;ratioP2;P2;SDS_P1;SDS_P2;PMS_P1;PMS_P2;Temp;Humidity;BMP_temperature;BMP_pressure;BME280_temperature;BME280_humidity;BME280_pressure;Samples;Min_cycle;Max_cycle;Signal;HPM_P1;HPM_P2
2023/04/25 00:01:56;;;;;;;16.83;7.60;;;;;;;;;;5116576;28;20707;-68
2023/04/25 00:04:23;;;;;;;16.58;7.28;;;;;;;;;;5116855;28;20221;-68
2023/04/25 00:06:52;;;;;;;16.75;7.30;;;;;;;;;;5117178;28;20714;-68
2023/04/25 00:09:19;;;;;;;15.07;5.80;;;;;;;;;;5116769;28;20189;-69
2023/04/25 00:11:46;;;;;;;13.23;6.72;;;;;;;;;;5116825;28;20219;-68
2023/04/25 00:14:16;;;;;;;15.15;6.47;;;;;;;;;;5116898;28;20200;-68
2023/04/25 00:16:43;;;;;;;13.40;6.55;;;;;;;;;;5116616;28;20236;-68
2023/04/25 00:19:11;;;;;;;16.55;7.80;;;;;;;;;;5116339;28;20197;-69
2023/04/25 00:21:40;;;;;;;12.13;6.38;;;;;;;;;;5116601;28;20207;-68
2023/04/25 00:24:07;;;;;;;17.52;7.43;;;;;;;;;;5116572;28;20196;-68
2023/04/25 00:26:35;;;;;;;13.18;8.18;;;;;;;;;;5116492;28;20280;-68
2023/04/25 00:29:02;;;;;;;14.07;7.55;;;;;;;;;;5116974;28;20208;-69
2023/04/25 00:31:31;;;;;;;14.10;6.85;;;;;;;;;;5116689;28;20535;-69
2023/04/25 00:33:58;;;;;;;17.70;7.18;;;;;;;;;;5117075;28;20199;-69
2023/04/25 00:36:26;;;;;;;9.85;7.20;;;;;;;;;;5116241;28;20189;-68
2023/04/25 00:38:54;;;;;;;11.13;7.10;;;;;;;;;;5115955;28;20668;-68
2023/04/25 00:41:22;;;;;;;17.33;8.00;;;;;;;;;;5115806;28;20669;-68
2023/04/25 00:43:49;;;;;;;13.48;6.60;;;;;;;;;;5116196;28;20195;-68
2023/04/25 00:46:17;;;;;;;9.25;7.05;;;;;;;;;;5116103;28;20220;-68
2023/04/25 00:48:45;;;;;;;11.32;6.63;;;;;;;;;;5116361;28;20246;-69
2023/04/25 00:51:15;;;;;;;8.98;6.88;;;;;;;;;;5116021;28;20558;-69
2023/04/25 00:53:42;;;;;;;12.40;6.47;;;;;;;;;;5116042;28;20654;-69
2023/04/25 00:56:09;;;;;;;17.33;6.85;;;;;;;;;;5115574;28;20232;-70
2023/04/25 00:58:36;;;;;;;10.57;7.18;;;;;;;;;;5115942;28;20210;-69
2023/04/25 01:01:04;;;;;;;8.98;6.05;;;;;;;;;;5115864;28;20203;-68
2023/04/25 01:03:32;;;;;;;12.98;6.38;;;;;;;;;;5115200;28;20709;-68
2023/04/25 01:06:00;;;;;;;11.82;6.03;;;;;;;;;;5116106;28;20265;-69
2023/04/25 01:08:28;;;;;;;14.60;6.13;;;;;;;;;;5115303;28;20202;-68
2023/04/25 01:10:55;;;;;;;21.88;7.28;;;;;;;;;;5115280;28;20197;-67
2023/04/25 01:13:22;;;;;;;14.77;6.30;;;;;;;;;;5115351;28;20200;-70
2023/04/25 01:15:49;;;;;;;10.80;5.88;;;;;;;;;;5116996;27;20624;-69
2023/04/25 01:18:16;;;;;;;11.25;6.32;;;;;;;;;;5136154;27;20541;-68
2023/04/25 01:20:44;;;;;;;8.75;5.60;;;;;;;;;;5136047;27;20199;-68
2023/04/25 01:23:13;;;;;;;8.02;5.93;;;;;;;;;;5135288;27;20214;-69
2023/04/25 01:25:40;;;;;;;14.88;7.47;;;;;;;;;;5135928;27;20672;-69
2023/04/25 01:28:07;;;;;;;11.32;5.60;;;;;;;;;;5135839;27;20203;-68
2023/04/25 01:30:35;;;;;;;10.05;6.15;;;;;;;;;;5135674;27;20279;-68
2023/04/25 01:33:02;;;;;;;10.23;6.10;;;;;;;;;;5135886;27;20285;-67
2023/04/25 01:35:29;;;;;;;7.93;5.68;;;;;;;;;;5135721;27;20196;-68
2023/04/25 01:37:57;;;;;;;8.90;5.50;;;;;;;;;;5135577;27;20192;-68
2023/04/25 01:40:25;;;;;;;8.50;5.50;;;;;;;;;;5135551;27;20192;-68
2023/04/25 01:42:53;;;;;;;12.50;5.78;;;;;;;;;;5135182;27;20196;-68
2023/04/25 01:45:20;;;;;;;9.52;5.80;;;;;;;;;;5136087;27;20237;-68
2023/04/25 01:47:49;;;;;;;7.97;5.85;;;;;;;;;;5135277;27;20247;-69
2023/04/25 01:50:16;;;;;;;10.65;5.95;;;;;;;;;;5136166;27;20218;-67
2023/04/25 01:52:43;;;;;;;10.63;5.55;;;;;;;;;;5135036;27;20667;-68
2023/04/25 01:55:11;;;;;;;13.80;6.55;;;;;;;;;;5135349;27;20290;-68
2023/04/25 01:57:39;;;;;;;12.20;5.45;;;;;;;;;;5135372;27;20199;-68
2023/04/25 02:00:08;;;;;;;13.00;5.80;;;;;;;;;;5135266;27;20192;-69
2023/04/25 02:02:35;;;;;;;8.15;4.78;;;;;;;;;;5135130;27;20223;-69
2023/04/25 02:05:02;;;;;;;9.57;6.55;;;;;;;;;;5135055;27;20251;-69
2023/04/25 02:07:30;;;;;;;5.90;5.10;;;;;;;;;;5134678;27;20195;-69
2023/04/25 02:09:57;;;;;;;13.65;5.47;;;;;;;;;;5134753;27;20624;-69
2023/04/25 02:12:26;;;;;;;18.30;5.47;;;;;;;;;;5134937;27;20218;-69
2023/04/25 02:14:54;;;;;;;12.93;6.05;;;;;;;;;;5135842;27;20268;-69
2023/04/25 02:17:22;;;;;;;13.32;6.22;;;;;;;;;;5134792;27;20266;-69
2023/04/25 02:19:50;;;;;;;15.38;5.03;;;;;;;;;;5134996;27;20196;-69
2023/04/25 02:22:17;;;;;;;14.13;5.45;;;;;;;;;;5134422;27;20192;-70
2023/04/25 02:24:44;;;;;;;13.10;4.70;;;;;;;;;;5134492;27;20195;-69
2023/04/25 02:27:11;;;;;;;8.27;4.93;;;;;;;;;;5134800;27;20187;-69
2023/04/25 02:29:38;;;;;;;11.05;5.15;;;;;;;;;;5134432;27;20645;-69
2023/04/25 02:32:07;;;;;;;16.83;5.05;;;;;;;;;;5134338;27;20192;-70
2023/04/25 02:34:34;;;;;;;15.68;5.18;;;;;;;;;;5133695;27;20200;-70
2023/04/25 02:37:01;;;;;;;16.08;4.95;;;;;;;;;;5134723;27;20203;-70
2023/04/25 02:39:28;;;;;;;15.95;5.70;;;;;;;;;;5134625;27;20200;-69
2023/04/25 02:41:56;;;;;;;13.75;5.40;;;;;;;;;;5134743;27;20196;-70
2023/04/25 02:44:23;;;;;;;15.57;4.95;;;;;;;;;;5134498;27;20198;-70
2023/04/25 02:46:50;;;;;;;13.35;5.57;;;;;;;;;;5134888;27;20227;-69
2023/04/25 02:49:18;;;;;;;20.23;5.30;;;;;;;;;;5134559;28;20195;-70
2023/04/25 02:51:46;;;;;;;19.00;4.90;;;;;;;;;;5134839;27;20223;-69
2023/04/25 02:54:13;;;;;;;17.13;6.00;;;;;;;;;;5134526;27;20192;-70
2023/04/25 02:56:40;;;;;;;21.92;6.90;;;;;;;;;;5134568;28;20199;-70
2023/04/25 02:59:07;;;;;;;14.45;5.10;;;;;;;;;;5134092;28;20203;-69
2023/04/25 03:01:34;;;;;;;21.83;5.50;;;;;;;;;;5134411;28;20283;-69
2023/04/25 03:04:02;;;;;;;25.40;5.60;;;;;;;;;;5134327;28;20192;-69
2023/04/25 03:06:30;;;;;;;14.35;6.10;;;;;;;;;;5134693;28;20220;-69
2023/04/25 03:08:57;;;;;;;26.42;5.85;;;;;;;;;;5134235;28;20202;-70
2023/04/25 03:11:26;;;;;;;14.32;6.05;;;;;;;;;;5134538;28;20192;-69
2023/04/25 03:13:53;;;;;;;11.75;5.25;;;;;;;;;;5133962;28;20195;-69
2023/04/25 03:16:21;;;;;;;17.70;6.75;;;;;;;;;;5133850;28;20234;-70
2023/04/25 03:18:49;;;;;;;26.05;6.43;;;;;;;;;;5134328;28;20191;-69
2023/04/25 03:21:16;;;;;;;26.70;6.00;;;;;;;;;;5133969;28;20196;-69
2023/04/25 03:23:45;;;;;;;20.65;6.32;;;;;;;;;;5134087;28;20287;-69
2023/04/25 03:26:12;;;;;;;16.10;5.70;;;;;;;;;;5134499;28;20223;-69
2023/04/25 03:28:39;;;;;;;16.77;5.38;;;;;;;;;;5134301;28;20196;-69
2023/04/25 03:31:07;;;;;;;18.55;6.35;;;;;;;;;;5134146;28;20199;-69
2023/04/25 03:33:34;;;;;;;17.60;5.18;;;;;;;;;;5134288;28;20218;-70
2023/04/25 03:36:01;;;;;;;17.38;6.25;;;;;;;;;;5134226;28;20540;-69
2023/04/25 03:38:29;;;;;;;15.82;5.47;;;;;;;;;;5133646;28;20199;-70
2023/04/25 03:40:57;;;;;;;17.75;5.00;;;;;;;;;;5133756;28;20656;-68
2023/04/25 03:43:24;;;;;;;18.58;6.40;;;;;;;;;;5134247;28;20210;-69
2023/04/25 03:45:52;;;;;;;17.70;6.70;;;;;;;;;;5135903;27;20222;-69
2023/04/25 03:48:21;;;;;;;20.45;5.45;;;;;;;;;;5137818;27;20198;-69
2023/04/25 03:50:48;;;;;;;9.52;4.80;;;;;;;;;;5137964;27;20586;-69
2023/04/25 03:53:15;;;;;;;11.32;5.75;;;;;;;;;;5137493;27;20717;-68
2023/04/25 03:55:42;;;;;;;38.97;7.38;;;;;;;;;;5137296;27;20418;-69
2023/04/25 03:58:11;;;;;;;20.48;5.70;;;;;;;;;;5136666;27;20273;-69
2023/04/25 04:00:38;;;;;;;12.82;5.20;;;;;;;;;;5137438;27;20191;-69
2023/04/25 04:03:05;;;;;;;22.40;6.18;;;;;;;;;;5137826;27;20192;-68
2023/04/25 04:05:33;;;;;;;14.77;5.40;;;;;;;;;;5137534;27;20222;-68
2023/04/25 04:08:00;;;;;;;19.05;6.50;;;;;;;;;;5137717;27;20601;-70
2023/04/25 04:10:27;;;;;;;23.98;6.97;;;;;;;;;;5137049;27;20196;-69
2023/04/25 04:12:54;;;;;;;21.33;5.70;;;;;;;;;;5137272;27;20188;-69
2023/04/25 04:15:23;;;;;;;19.23;5.80;;;;;;;;;;5137138;27;20203;-69
2023/04/25 04:17:50;;;;;;;24.23;7.10;;;;;;;;;;5136814;27;20228;-69
2023/04/25 04:20:18;;;;;;;32.15;7.25;;;;;;;;;;5136726;27;20634;-69
2023/04/25 04:22:45;;;;;;;18.38;6.50;;;;;;;;;;5137065;27;20560;-69
2023/04/25 04:25:12;;;;;;;21.88;5.97;;;;;;;;;;5136942;27;20642;-69
2023/04/25 04:27:40;;;;;;;17.73;6.32;;;;;;;;;;5136901;27;20198;-69
2023/04/25 04:30:08;;;;;;;24.20;6.28;;;;;;;;;;5136842;27;20286;-69
2023/04/25 04:32:37;;;;;;;23.20;5.90;;;;;;;;;;5136852;27;20241;-69
2023/04/25 04:35:06;;;;;;;12.43;6.25;;;;;;;;;;5136438;27;20199;-69
2023/04/25 04:37:33;;;;;;;21.00;6.47;;;;;;;;;;5136810;27;20242;-68
2023/04/25 04:40:05;;;;;;;12.68;6.35;;;;;;;;;;5136724;27;20224;-68
2023/04/25 04:42:32;;;;;;;15.20;5.80;;;;;;;;;;5136513;27;20180;-68
2023/04/25 04:45:01;;;;;;;22.65;6.03;;;;;;;;;;5136561;27;20191;-69
2023/04/25 04:47:32;;;;;;;33.53;8.02;;;;;;;;;;5136865;27;20230;-69
2023/04/25 04:50:00;;;;;;;17.17;6.53;;;;;;;;;;5136671;27;20189;-69
2023/04/25 04:52:27;;;;;;;18.50;6.20;;;;;;;;;;5136220;27;20195;-72
2023/04/25 04:54:55;;;;;;;25.45;6.90;;;;;;;;;;5136212;27;20198;-74
2023/04/25 04:57:22;;;;;;;19.58;6.72;;;;;;;;;;5135235;27;20200;-69
2023/04/25 04:59:50;;;;;;;12.85;5.72;;;;;;;;;;5136197;27;20305;-69
2023/04/25 05:02:17;;;;;;;18.88;7.13;;;;;;;;;;5136255;27;20191;-70
2023/04/25 05:04:44;;;;;;;18.00;6.35;;;;;;;;;;5136207;27;20244;-69
2023/04/25 05:07:13;;;;;;;24.92;7.40;;;;;;;;;;5136050;27;20314;-70
2023/04/25 05:09:40;;;;;;;16.73;5.68;;;;;;;;;;5135701;27;20191;-69
2023/04/25 05:12:07;;;;;;;19.50;6.65;;;;;;;;;;5136116;27;20196;-69
2023/04/25 05:14:35;;;;;;;15.25;6.50;;;;;;;;;;5135919;27;20253;-69
2023/04/25 05:17:04;;;;;;;9.98;5.30;;;;;;;;;;5136764;27;20230;-69
2023/04/25 05:19:31;;;;;;;20.35;6.53;;;;;;;;;;5135966;27;20204;-69
2023/04/25 05:21:58;;;;;;;32.60;7.43;;;;;;;;;;5135788;27;20198;-69
2023/04/25 05:24:27;;;;;;;14.98;5.90;;;;;;;;;;5135549;27;20710;-70
2023/04/25 05:26:54;;;;;;;14.75;6.72;;;;;;;;;;5135287;27;20714;-69
2023/04/25 05:29:22;;;;;;;26.45;6.55;;;;;;;;;;5135786;27;20191;-69
2023/04/25 05:31:49;;;;;;;15.38;6.35;;;;;;;;;;5135688;27;20198;-69
2023/04/25 05:34:16;;;;;;;13.27;5.85;;;;;;;;;;5135552;27;20188;-69
2023/04/25 05:36:43;;;;;;;17.95;7.65;;;;;;;;;;5135430;27;20220;-69
2023/04/25 05:39:11;;;;;;;14.60;5.82;;;;;;;;;;5135615;27;20255;-69
2023/04/25 05:41:39;;;;;;;17.63;5.70;;;;;;;;;;5135706;27;20192;-69
2023/04/25 05:44:06;;;;;;;22.15;6.03;;;;;;;;;;5135579;27;20199;-69
2023/04/25 05:46:34;;;;;;;17.67;5.75;;;;;;;;;;5135164;27;20219;-69
2023/04/25 05:49:01;;;;;;;13.00;4.65;;;;;;;;;;5135796;27;20192;-69
2023/04/25 05:51:28;;;;;;;14.63;4.97;;;;;;;;;;5135386;27;20203;-69
2023/04/25 05:53:55;;;;;;;12.32;4.88;;;;;;;;;;5135701;27;20196;-69
2023/04/25 05:56:22;;;;;;;15.13;4.80;;;;;;;;;;5135594;27;20196;-69
2023/04/25 05:58:51;;;;;;;9.05;5.28;;;;;;;;;;5135219;27;20213;-70
2023/04/25 06:01:18;;;;;;;23.25;6.35;;;;;;;;;;5135100;27;20196;-70
2023/04/25 06:03:46;;;;;;;16.27;5.57;;;;;;;;;;5135791;27;20195;-69
2023/04/25 06:06:13;;;;;;;15.82;4.50;;;;;;;;;;5135069;27;20223;-69
2023/04/25 06:08:40;;;;;;;15.52;4.90;;;;;;;;;;5134960;27;20195;-70
2023/04/25 06:11:07;;;;;;;13.30;5.85;;;;;;;;;;5135568;27;20203;-70
2023/04/25 06:13:34;;;;;;;12.13;4.57;;;;;;;;;;5134979;27;20199;-70
2023/04/25 06:16:03;;;;;;;11.90;4.68;;;;;;;;;;5134490;27;20220;-70
2023/04/25 06:18:30;;;;;;;15.80;4.53;;;;;;;;;;5134988;27;20198;-70
2023/04/25 06:20:57;;;;;;;20.08;4.93;;;;;;;;;;5135095;27;20618;-69
2023/04/25 06:23:24;;;;;;;13.75;5.13;;;;;;;;;;5134854;27;20198;-69
2023/04/25 06:25:52;;;;;;;7.47;4.60;;;;;;;;;;5134358;27;20728;-69
2023/04/25 06:28:19;;;;;;;15.13;4.65;;;;;;;;;;5134810;27;20192;-69
2023/04/25 06:30:46;;;;;;;9.90;5.13;;;;;;;;;;5134698;27;20195;-70
2023/04/25 06:33:14;;;;;;;14.20;4.97;;;;;;;;;;5135213;27;20191;-69
2023/04/25 06:35:42;;;;;;;17.38;5.70;;;;;;;;;;5134802;27;20198;-69
2023/04/25 06:38:10;;;;;;;24.10;5.55;;;;;;;;;;5134794;27;20200;-69
2023/04/25 06:40:37;;;;;;;12.50;4.20;;;;;;;;;;5134566;27;20286;-70
2023/04/25 06:43:04;;;;;;;15.90;4.43;;;;;;;;;;5134328;27;20199;-69
2023/04/25 06:45:31;;;;;;;20.67;4.90;;;;;;;;;;5134538;27;20192;-70
2023/04/25 06:47:58;;;;;;;11.88;4.47;;;;;;;;;;5134286;27;20222;-69
2023/04/25 06:50:27;;;;;;;15.88;4.00;;;;;;;;;;5134571;27;20198;-69
2023/04/25 06:52:54;;;;;;;28.48;7.53;;;;;;;;;;5134142;27;20198;-69
2023/04/25 06:55:21;;;;;;;8.85;3.85;;;;;;;;;;5134509;27;20195;-69
2023/04/25 06:57:49;;;;;;;17.27;4.93;;;;;;;;;;5134563;28;20192;-70
2023/04/25 07:00:16;;;;;;;16.90;4.40;;;;;;;;;;5134140;28;20283;-70
2023/04/25 07:02:43;;;;;;;11.45;4.57;;;;;;;;;;5134450;28;20194;-69
2023/04/25 07:05:11;;;;;;;19.08;4.00;;;;;;;;;;5134037;28;20239;-69
2023/04/25 07:07:39;;;;;;;11.60;4.72;;;;;;;;;;5134171;28;20323;-70
2023/04/25 07:10:07;;;;;;;17.10;4.60;;;;;;;;;;5134305;28;20594;-69
2023/04/25 07:12:34;;;;;;;12.18;4.43;;;;;;;;;;5134422;28;20200;-70
2023/04/25 07:15:05;;;;;;;11.88;4.43;;;;;;;;;;5134005;28;20282;-70
2023/04/25 07:17:33;;;;;;;8.05;3.55;;;;;;;;;;5134425;28;20231;-69
2023/04/25 07:20:00;;;;;;;10.25;4.20;;;;;;;;;;5135064;27;20649;-69
2023/04/25 07:22:27;;;;;;;14.05;3.88;;;;;;;;;;5138248;27;20527;-70
2023/04/25 07:24:56;;;;;;;7.22;3.30;;;;;;;;;;5137969;27;20670;-70
2023/04/25 07:27:23;;;;;;;10.02;3.95;;;;;;;;;;5138422;27;20223;-69
2023/04/25 07:29:50;;;;;;;9.13;4.30;;;;;;;;;;5138374;27;20192;-69
2023/04/25 07:32:17;;;;;;;9.73;3.92;;;;;;;;;;5138153;27;20192;-69
2023/04/25 07:34:44;;;;;;;15.88;5.35;;;;;;;;;;5138194;27;20203;-69
2023/04/25 07:37:12;;;;;;;9.45;3.40;;;;;;;;;;5138071;27;20252;-70
2023/04/25 07:39:39;;;;;;;7.88;4.43;;;;;;;;;;5138058;27;20543;-69
2023/04/25 07:42:08;;;;;;;8.98;3.53;;;;;;;;;;5138067;27;20199;-70
2023/04/25 07:44:38;;;;;;;10.15;3.60;;;;;;;;;;5138256;27;20209;-70
2023/04/25 07:47:06;;;;;;;8.48;3.05;;;;;;;;;;5137423;27;20308;-70
2023/04/25 07:49:34;;;;;;;9.70;3.88;;;;;;;;;;5137889;27;20607;-70
2023/04/25 07:52:01;;;;;;;11.15;2.95;;;;;;;;;;5137774;27;20196;-69
2023/04/25 07:54:28;;;;;;;7.20;3.28;;;;;;;;;;5138689;27;20640;-69
2023/04/25 07:56:56;;;;;;;5.10;3.30;;;;;;;;;;5137306;27;20292;-69
2023/04/25 07:59:24;;;;;;;11.30;3.47;;;;;;;;;;5137611;27;20202;-70
2023/04/25 08:01:52;;;;;;;8.45;3.00;;;;;;;;;;5137495;27;20188;-70
2023/04/25 08:04:19;;;;;;;15.98;4.13;;;;;;;;;;5137292;27;20237;-69
2023/04/25 08:06:46;;;;;;;10.63;3.65;;;;;;;;;;5137275;27;20697;-70
2023/04/25 08:09:13;;;;;;;8.40;3.30;;;;;;;;;;5137485;27;20195;-70
2023/04/25 08:11:41;;;;;;;6.97;3.40;;;;;;;;;;5138016;27;20460;-70
2023/04/25 08:14:08;;;;;;;10.73;3.40;;;;;;;;;;5137413;27;20220;-70
2023/04/25 08:16:37;;;;;;;7.95;3.50;;;;;;;;;;5136954;27;20477;-70
2023/04/25 08:19:04;;;;;;;11.18;3.50;;;;;;;;;;5137236;27;20196;-70
2023/04/25 08:21:32;;;;;;;7.10;3.42;;;;;;;;;;5137528;27;20192;-70
2023/04/25 08:23:59;;;;;;;10.90;4.70;;;;;;;;;;5137169;27;20547;-70
2023/04/25 08:26:27;;;;;;;3.77;2.40;;;;;;;;;;5137526;27;20450;-70
2023/04/25 08:28:54;;;;;;;9.13;3.60;;;;;;;;;;5137377;27;20433;-70
2023/04/25 08:31:21;;;;;;;7.97;3.50;;;;;;;;;;5135725;27;20842;-70
2023/04/25 08:33:51;;;;;;;10.13;3.60;;;;;;;;;;5136482;27;20437;-70
2023/04/25 08:36:18;;;;;;;7.03;3.07;;;;;;;;;;5136487;27;20176;-70
2023/04/25 08:38:46;;;;;;;12.43;2.83;;;;;;;;;;5137213;27;20445;-70
2023/04/25 08:41:13;;;;;;;6.18;3.15;;;;;;;;;;5136854;27;20517;-70
2023/04/25 08:43:43;;;;;;;8.20;3.30;;;;;;;;;;5136156;27;20675;-70
2023/04/25 08:46:11;;;;;;;10.90;3.60;;;;;;;;;;5136731;27;20192;-70
2023/04/25 08:48:38;;;;;;;5.80;3.00;;;;;;;;;;5136673;27;20875;-70
2023/04/25 08:51:08;;;;;;;6.43;2.47;;;;;;;;;;5136698;27;20441;-70
2023/04/25 08:53:35;;;;;;;8.13;2.80;;;;;;;;;;5137015;27;20538;-70
2023/04/25 08:56:03;;;;;;;4.13;2.65;;;;;;;;;;5136488;27;20522;-70
2023/04/25 08:58:30;;;;;;;8.57;3.20;;;;;;;;;;5136617;27;20274;-70
2023/04/25 09:00:57;;;;;;;10.18;2.25;;;;;;;;;;5136660;27;20291;-70
2023/04/25 09:03:25;;;;;;;9.02;2.47;;;;;;;;;;5136275;27;20195;-70
2023/04/25 09:06:12;;;;;;;11.18;3.60;;;;;;;;;;5136026;27;20207;-70
2023/04/25 09:08:40;;;;;;;5.97;2.30;;;;;;;;;;5136031;27;20211;-70
2023/04/25 09:11:08;;;;;;;4.28;2.85;;;;;;;;;;5136092;27;20442;-70
2023/04/25 09:13:35;;;;;;;5.20;2.57;;;;;;;;;;5136079;27;20200;-70
2023/04/25 09:16:03;;;;;;;8.03;3.07;;;;;;;;;;5131875;27;20988;-70
2023/04/25 09:18:30;;;;;;;6.70;2.80;;;;;;;;;;5115416;28;20443;-71
2023/04/25 09:20:58;;;;;;;4.70;2.40;;;;;;;;;;5116019;28;20525;-70
2023/04/25 09:23:26;;;;;;;5.77;2.63;;;;;;;;;;5115035;28;20935;-71
2023/04/25 09:25:55;;;;;;;4.57;2.05;;;;;;;;;;5115377;28;20453;-70
2023/04/25 09:28:27;;;;;;;6.85;2.58;;;;;;;;;;5115485;28;20227;-70
2023/04/25 09:30:57;;;;;;;7.40;2.80;;;;;;;;;;5115375;28;20228;-70
2023/04/25 09:33:28;;;;;;;8.30;2.17;;;;;;;;;;5114828;28;20423;-70
2023/04/25 09:35:56;;;;;;;8.90;2.27;;;;;;;;;;5115307;28;20185;-70
2023/04/25 09:38:23;;;;;;;4.57;2.20;;;;;;;;;;5115285;28;20537;-70
2023/04/25 09:40:50;;;;;;;7.47;2.33;;;;;;;;;;5114811;28;20435;-70
2023/04/25 09:43:23;;;;;;;6.07;2.20;;;;;;;;;;5114543;28;20442;-70
2023/04/25 09:45:51;;;;;;;5.50;2.70;;;;;;;;;;5114840;28;20454;-70
2023/04/25 09:48:19;;;;;;;10.33;5.13;;;;;;;;;;5114405;28;20477;-70
2023/04/25 09:50:47;;;;;;;5.50;2.10;;;;;;;;;;5114588;28;20436;-70
2023/04/25 09:53:14;;;;;;;2.83;2.20;;;;;;;;;;5114733;28;20804;-70
2023/04/25 09:55:47;;;;;;;3.10;1.93;;;;;;;;;;5114476;28;20450;-70
2023/04/25 09:58:15;;;;;;;2.53;2.33;;;;;;;;;;5114968;28;20430;-71
2023/04/25 10:00:44;;;;;;;7.38;1.95;;;;;;;;;;5114660;28;20529;-70
2023/04/25 10:03:12;;;;;;;4.80;1.77;;;;;;;;;;5114560;28;20196;-71
2023/04/25 10:05:40;;;;;;;3.35;1.95;;;;;;;;;;5114547;28;20460;-70
2023/04/25 10:08:08;;;;;;;4.93;1.87;;;;;;;;;;5114387;28;20224;-70
2023/04/25 10:10:36;;;;;;;5.50;2.20;;;;;;;;;;5114380;28;20441;-70
2023/04/25 10:13:07;;;;;;;5.40;2.50;;;;;;;;;;5114129;28;20526;-70
2023/04/25 10:15:36;;;;;;;7.27;2.70;;;;;;;;;;5114005;28;20510;-70
2023/04/25 10:18:06;;;;;;;6.60;2.10;;;;;;;;;;5114397;28;20440;-70
2023/04/25 10:20:34;;;;;;;9.03;2.27;;;;;;;;;;5114256;28;20448;-70
2023/04/25 10:23:08;;;;;;;5.23;2.90;;;;;;;;;;5114035;28;20475;-70
2023/04/25 10:25:35;;;;;;;16.87;2.80;;;;;;;;;;5114270;28;20427;-70
2023/04/25 10:28:03;;;;;;;9.57;2.40;;;;;;;;;;5114490;28;20474;-70
2023/04/25 10:30:30;;;;;;;6.13;2.47;;;;;;;;;;5114074;28;20443;-70
2023/04/25 10:32:57;;;;;;;3.33;2.10;;;;;;;;;;5114184;28;20436;-70
2023/04/25 10:35:29;;;;;;;9.10;2.37;;;;;;;;;;5114414;28;20446;-70
2023/04/25 10:38:05;;;;;;;4.40;2.00;;;;;;;;;;5114680;28;20514;-70
2023/04/25 10:40:32;;;;;;;7.30;1.90;;;;;;;;;;5113610;28;20438;-70
2023/04/25 10:43:14;;;;;;;2.93;2.13;;;;;;;;;;5114009;28;20438;-70
2023/04/25 10:45:52;;;;;;;5.70;2.50;;;;;;;;;;5113411;28;20457;-70
2023/04/25 10:48:26;;;;;;;4.33;1.87;;;;;;;;;;5113696;28;20475;-70
2023/04/25 10:51:08;;;;;;;3.07;2.37;;;;;;;;;;5113989;28;20432;-70
2023/04/25 10:53:35;;;;;;;10.77;3.20;;;;;;;;;;5114433;28;20431;-70
2023/04/25 10:56:10;;;;;;;7.47;2.23;;;;;;;;;;5113051;28;20478;-70
2023/04/25 10:58:37;;;;;;;4.13;1.77;;;;;;;;;;5113587;28;20950;-70
2023/04/25 11:01:05;;;;;;;6.97;2.37;;;;;;;;;;5113736;28;20442;-70
2023/04/25 11:03:32;;;;;;;5.80;2.03;;;;;;;;;;5113452;28;20482;-70
2023/04/25 11:06:01;;;;;;;4.50;2.55;;;;;;;;;;5113666;28;20438;-70
2023/04/25 11:08:38;;;;;;;4.20;2.50;;;;;;;;;;5113599;28;20224;-70
2023/04/25 11:11:06;;;;;;;6.50;2.03;;;;;;;;;;5113372;28;20195;-70
2023/04/25 11:13:33;;;;;;;7.17;2.10;;;;;;;;;;5113648;28;20442;-71
2023/04/25 11:16:00;;;;;;;5.05;2.40;;;;;;;;;;5113380;28;20474;-70
2023/04/25 11:18:27;;;;;;;11.23;4.67;;;;;;;;;;5113666;28;20638;-70
2023/04/25 11:20:55;;;;;;;3.90;2.17;;;;;;;;;;5113264;28;20981;-70
2023/04/25 11:23:22;;;;;;;5.05;2.20;;;;;;;;;;5113599;28;20193;-70
2023/04/25 11:25:51;;;;;;;6.72;2.50;;;;;;;;;;5113762;28;20188;-70
2023/04/25 11:28:23;;;;;;;6.63;2.15;;;;;;;;;;5114300;28;20217;-70
2023/04/25 11:30:50;;;;;;;5.30;2.17;;;;;;;;;;5113703;28;20188;-70
2023/04/25 11:33:17;;;;;;;8.13;2.30;;;;;;;;;;5113208;28;20431;-70
2023/04/25 11:35:44;;;;;;;8.00;2.97;;;;;;;;;;5113415;28;20560;-70
2023/04/25 11:38:12;;;;;;;8.27;2.20;;;;;;;;;;5113472;28;20200;-70
2023/04/25 11:40:39;;;;;;;7.35;2.60;;;;;;;;;;5113723;28;20445;-70
2023/04/25 11:43:08;;;;;;;5.70;2.20;;;;;;;;;;5113269;28;20681;-70
2023/04/25 11:45:35;;;;;;;5.60;2.23;;;;;;;;;;5113465;28;20787;-70
2023/04/25 11:48:03;;;;;;;7.87;2.30;;;;;;;;;;5113451;28;20974;-70
2023/04/25 11:50:30;;;;;;;5.00;1.83;;;;;;;;;;5112944;28;20441;-70
2023/04/25 11:52:58;;;;;;;4.10;1.65;;;;;;;;;;5113267;28;20423;-70
2023/04/25 11:55:25;;;;;;;2.43;1.73;;;;;;;;;;5113200;28;20189;-70
2023/04/25 11:57:52;;;;;;;8.60;2.13;;;;;;;;;;5113292;28;20431;-70
2023/04/25 12:00:22;;;;;;;4.40;2.17;;;;;;;;;;5112822;28;20229;-70
2023/04/25 12:02:52;;;;;;;5.82;2.55;;;;;;;;;;5113264;28;20474;-70
2023/04/25 12:05:20;;;;;;;2.70;1.50;;;;;;;;;;5113188;28;20197;-70
2023/04/25 12:07:48;;;;;;;2.03;1.55;;;;;;;;;;5117096;28;20446;-70
2023/04/25 12:10:16;;;;;;;2.23;1.67;;;;;;;;;;5116769;28;20284;-70
2023/04/25 12:12:44;;;;;;;3.50;2.33;;;;;;;;;;5116784;28;20436;-70
2023/04/25 12:15:12;;;;;;;1.53;1.40;;;;;;;;;;5097570;28;20824;-74
2023/04/25 12:17:41;;;;;;;2.53;1.50;;;;;;;;;;5112884;28;20483;-71
2023/04/25 12:20:09;;;;;;;2.83;1.50;;;;;;;;;;5116370;28;20530;-75
2023/04/25 12:22:37;;;;;;;6.37;1.73;;;;;;;;;;5116120;28;20442;-70
2023/04/25 12:25:04;;;;;;;3.97;1.80;;;;;;;;;;5116160;28;20912;-71
2023/04/25 12:27:33;;;;;;;2.97;1.90;;;;;;;;;;5116155;28;20446;-70
2023/04/25 12:30:01;;;;;;;5.23;1.97;;;;;;;;;;5116374;28;20486;-70
2023/04/25 12:32:28;;;;;;;3.73;1.60;;;;;;;;;;5116361;28;20431;-70
2023/04/25 12:34:57;;;;;;;2.27;2.00;;;;;;;;;;5116011;28;20484;-70
2023/04/25 12:37:25;;;;;;;10.70;1.97;;;;;;;;;;5131967;27;20448;-71
2023/04/25 12:39:52;;;;;;;4.10;2.20;;;;;;;;;;5134439;27;20449;-70
2023/04/25 12:42:19;;;;;;;2.30;1.57;;;;;;;;;;5136672;27;20434;-70
2023/04/25 12:44:47;;;;;;;4.30;1.90;;;;;;;;;;5137087;27;20811;-70
2023/04/25 12:47:14;;;;;;;3.50;2.20;;;;;;;;;;5136099;27;20458;-70
2023/04/25 12:49:41;;;;;;;4.90;2.13;;;;;;;;;;5136660;27;20512;-70
2023/04/25 12:52:10;;;;;;;3.77;2.00;;;;;;;;;;5136045;27;20953;-70
2023/04/25 12:54:38;;;;;;;4.40;1.73;;;;;;;;;;5136735;27;20451;-70
2023/04/25 12:57:05;;;;;;;2.20;1.87;;;;;;;;;;5136288;27;20439;-71
2023/04/25 12:59:32;;;;;;;4.47;2.10;;;;;;;;;;5135934;27;20439;-71
2023/04/25 13:01:59;;;;;;;3.60;2.30;;;;;;;;;;5135941;27;20449;-71
2023/04/25 13:04:27;;;;;;;4.67;2.67;;;;;;;;;;5135954;27;20457;-70
2023/04/25 13:06:54;;;;;;;5.27;2.30;;;;;;;;;;5136309;27;20446;-70
2023/04/25 13:09:23;;;;;;;5.87;3.00;;;;;;;;;;5131996;27;20811;-70
2023/04/25 13:11:50;;;;;;;2.97;1.80;;;;;;;;;;5115218;28;20455;-70
2023/04/25 13:14:17;;;;;;;6.13;2.17;;;;;;;;;;5115837;28;20446;-70
2023/04/25 13:16:45;;;;;;;5.67;2.20;;;;;;;;;;5114954;28;20470;-70
2023/04/25 13:19:12;;;;;;;8.70;2.63;;;;;;;;;;5114259;28;20519;-70
2023/04/25 13:21:39;;;;;;;4.43;2.17;;;;;;;;;;5115108;28;20460;-70
2023/04/25 13:24:07;;;;;;;6.13;2.33;;;;;;;;;;5114919;28;20458;-70
2023/04/25 13:26:35;;;;;;;4.20;1.87;;;;;;;;;;5114786;28;20503;-70
2023/04/25 13:29:03;;;;;;;5.30;2.80;;;;;;;;;;5114735;28;20494;-72
2023/04/25 13:31:31;;;;;;;3.57;2.10;;;;;;;;;;5115300;28;20497;-70
2023/04/25 13:33:58;;;;;;;4.73;2.13;;;;;;;;;;5115587;28;20446;-70
2023/04/25 13:36:25;;;;;;;2.20;2.00;;;;;;;;;;5114497;28;20560;-71
2023/04/25 13:38:53;;;;;;;4.43;2.10;;;;;;;;;;5115208;28;20500;-69
2023/04/25 13:41:20;;;;;;;2.97;1.90;;;;;;;;;;5114683;28;20439;-73
2023/04/25 13:43:49;;;;;;;2.73;1.93;;;;;;;;;;5115258;28;20533;-70
2023/04/25 13:46:16;;;;;;;4.77;1.83;;;;;;;;;;5115272;28;20443;-70
2023/04/25 13:48:46;;;;;;;3.77;2.27;;;;;;;;;;5114740;28;20471;-70
2023/04/25 13:51:14;;;;;;;3.95;1.80;;;;;;;;;;5114697;28;20508;-69
2023/04/25 13:53:41;;;;;;;7.57;2.07;;;;;;;;;;5114617;28;20197;-70
2023/04/25 13:56:08;;;;;;;2.53;1.80;;;;;;;;;;5114390;28;20445;-70
2023/04/25 13:58:36;;;;;;;3.50;1.60;;;;;;;;;;5114537;28;20440;-71
2023/04/25 14:01:04;;;;;;;7.23;2.67;;;;;;;;;;5114636;28;20526;-72
2023/04/25 14:03:32;;;;;;;3.50;1.70;;;;;;;;;;5114423;28;20445;-69
2023/04/25 14:05:59;;;;;;;6.17;2.37;;;;;;;;;;5114227;28;20446;-70
2023/04/25 14:08:26;;;;;;;4.43;1.93;;;;;;;;;;5114361;28;20451;-70
2023/04/25 14:10:54;;;;;;;5.43;2.60;;;;;;;;;;5131581;27;20488;-70
2023/04/25 14:13:21;;;;;;;4.33;1.87;;;;;;;;;;5134516;27;20962;-73
2023/04/25 14:15:50;;;;;;;7.67;1.70;;;;;;;;;;5134561;27;20495;-71
2023/04/25 14:18:18;;;;;;;3.80;2.00;;;;;;;;;;5134958;27;20446;-71
2023/04/25 14:20:45;;;;;;;4.47;2.00;;;;;;;;;;5134922;27;20437;-73
2023/04/25 14:23:13;;;;;;;3.37;1.77;;;;;;;;;;5134490;27;20438;-74
2023/04/25 14:25:41;;;;;;;5.00;2.20;;;;;;;;;;5134667;27;20436;-73
2023/04/25 14:28:09;;;;;;;4.23;1.80;;;;;;;;;;5134484;27;20533;-73
2023/04/25 14:30:36;;;;;;;7.90;1.90;;;;;;;;;;5134635;27;20483;-73
2023/04/25 14:33:03;;;;;;;2.10;1.60;;;;;;;;;;5134693;27;20433;-75
2023/04/25 14:35:31;;;;;;;2.57;1.87;;;;;;;;;;5134431;27;21018;-75
2023/04/25 14:37:59;;;;;;;5.07;1.67;;;;;;;;;;5134396;27;20441;-74
2023/04/25 14:40:27;;;;;;;4.20;2.30;;;;;;;;;;5134396;27;20448;-73